createdAt,value
2022-10-23T00:03:32.489Z,22.90
2022-10-23T00:08:35.880Z,20.70
2022-10-23T00:13:39.231Z,28.00
2022-10-23T00:18:42.093Z,22.90
2022-10-23T00:23:45.550Z,24.70
2022-10-23T00:28:50.962Z,24.80
2022-10-23T00:33:54.319Z,25.10
2022-10-23T00:38:57.063Z,22.90
2022-10-23T00:44:18.305Z,26.20
2022-10-23T00:49:23.059Z,21.50
2022-10-23T00:54:29.837Z,23.40
2022-10-23T00:59:33.797Z,21.80
2022-10-23T01:04:37.330Z,24.40
2022-10-23T01:09:51.367Z,21.20
2022-10-23T01:15:12.397Z,19.60
2022-10-23T01:20:21.287Z,20.40
2022-10-23T01:25:50.904Z,18.30
2022-10-23T01:30:57.994Z,18.30
2022-10-23T01:36:04.946Z,19.50
2022-10-23T01:41:15.328Z,23.30
2022-10-23T01:46:18.569Z,21.10
2022-10-23T01:51:26.173Z,22.80
2022-10-23T01:56:32.970Z,22.50
2022-10-23T02:01:37.678Z,25.20
2022-10-23T02:06:41.249Z,20.40
2022-10-23T02:12:09.100Z,22.90
2022-10-23T02:17:28.496Z,23.70
2022-10-23T02:22:38.590Z,26.40
2022-10-23T02:27:53.251Z,24.60
2022-10-23T02:32:57.709Z,22.60
2022-10-23T02:38:02.042Z,24.20
2022-10-23T02:43:32.965Z,23.10
2022-10-23T02:48:48.011Z,25.30
2022-10-23T02:54:03.067Z,23.80
2022-10-23T02:59:26.659Z,23.60
2022-10-23T03:04:31.955Z,27.50
2022-10-23T03:09:34.647Z,30.20
2022-10-23T03:14:37.442Z,24.30
2022-10-23T03:19:40.196Z,28.10
2022-10-23T03:24:42.944Z,27.90
2022-10-23T03:29:45.664Z,29.50
2022-10-23T03:34:48.334Z,30.80
2022-10-23T03:39:51.181Z,27.90
2022-10-23T03:44:53.896Z,27.30
2022-10-23T03:49:56.563Z,26.90
2022-10-23T03:54:59.223Z,27.20
2022-10-23T04:00:02.521Z,26.20
2022-10-23T04:05:06.087Z,26.20
2022-10-23T04:10:09.253Z,27.40
2022-10-23T04:15:11.988Z,26.20
2022-10-23T04:20:14.902Z,28.90
2022-10-23T04:25:17.741Z,26.70
2022-10-23T04:30:20.444Z,24.70
2022-10-23T04:35:23.173Z,28.00
2022-10-23T04:40:25.908Z,25.00
2022-10-23T04:45:28.683Z,29.10
2022-10-23T04:50:31.419Z,26.90
2022-10-23T04:55:34.118Z,22.90
2022-10-23T05:00:36.850Z,24.60
2022-10-23T05:05:40.099Z,22.30
2022-10-23T05:10:42.798Z,26.30
2022-10-23T05:15:47.656Z,28.10
2022-10-23T05:20:54.584Z,27.30
2022-10-23T05:25:57.307Z,27.40
2022-10-23T05:31:02.871Z,26.20
2022-10-23T05:36:06.012Z,26.50
2022-10-23T05:41:08.877Z,31.50
2022-10-23T05:46:12.107Z,27.70
2022-10-23T05:51:20.329Z,30.40
2022-10-23T05:56:23.050Z,32.50
2022-10-23T06:01:25.893Z,27.80
2022-10-23T06:06:28.879Z,26.30
2022-10-23T06:11:31.627Z,26.20
2022-10-23T06:16:34.707Z,22.90
2022-10-23T06:21:38.919Z,24.50
2022-10-23T06:26:41.560Z,20.10
2022-10-23T06:31:44.342Z,18.80
2022-10-23T06:36:47.031Z,18.10
2022-10-23T06:41:49.726Z,17.20
2022-10-23T06:46:52.502Z,18.20
2022-10-23T06:51:55.173Z,18.50
2022-10-23T06:56:57.866Z,18.40
2022-10-23T07:02:00.789Z,16.00
2022-10-23T07:07:03.658Z,14.30
2022-10-23T07:12:06.673Z,15.90
2022-10-23T07:17:09.442Z,14.70
2022-10-23T07:22:14.968Z,15.30
2022-10-23T07:27:18.886Z,18.10
2022-10-23T07:32:23.978Z,20.80
2022-10-23T07:37:29.234Z,14.40
2022-10-23T07:42:32.011Z,16.30
2022-10-23T07:47:35.083Z,16.20
2022-10-23T07:52:37.783Z,15.40
2022-10-23T07:57:40.529Z,22.80
2022-10-23T08:02:43.513Z,18.40
2022-10-23T08:07:46.554Z,18.90
2022-10-23T08:12:49.289Z,21.00
2022-10-23T08:17:52.334Z,20.80
2022-10-23T08:22:55.725Z,21.30
2022-10-23T08:27:58.423Z,19.90
2022-10-23T08:33:06.755Z,19.50
2022-10-23T08:38:11.083Z,14.60
2022-10-23T08:43:39.200Z,14.40
2022-10-23T08:48:51.497Z,10.30
2022-10-23T08:54:06.750Z,9.50
2022-10-23T08:59:12.272Z,9.00
2022-10-23T09:04:16.439Z,13.80
2022-10-23T09:09:36.375Z,11.00
2022-10-23T09:14:56.108Z,12.90
2022-10-23T09:20:01.907Z,12.10
2022-10-23T09:25:14.584Z,13.40
2022-10-23T09:30:32.263Z,15.00
2022-10-23T09:35:34.949Z,12.70
2022-10-23T09:40:44.397Z,15.30
2022-10-23T09:46:00.893Z,18.00
2022-10-23T09:51:25.314Z,18.50
2022-10-23T09:56:30.760Z,18.20
2022-10-23T10:01:45.404Z,11.20
2022-10-23T10:06:57.659Z,15.10
2022-10-23T10:12:26.747Z,16.20
2022-10-23T10:17:39.745Z,17.00
2022-10-23T10:23:06.779Z,17.60
2022-10-23T10:28:26.944Z,15.60
2022-10-23T10:33:36.716Z,17.60
2022-10-23T10:38:53.442Z,18.80
2022-10-23T10:44:38.271Z,20.80
2022-10-23T10:49:52.033Z,20.20
2022-10-23T10:55:20.056Z,23.30
2022-10-23T11:00:23.779Z,47.60
2022-10-23T11:11:20.532Z,22.80
2022-10-23T11:16:39.339Z,24.10
2022-10-23T11:21:54.902Z,21.60
2022-10-23T11:27:09.879Z,22.30
2022-10-23T11:32:57.169Z,20.70
2022-10-23T11:38:28.248Z,22.10
2022-10-23T11:43:51.744Z,20.60
2022-10-23T11:48:56.483Z,23.70
2022-10-23T11:54:27.342Z,21.50
2022-10-23T11:59:33.521Z,23.60
2022-10-23T12:04:56.506Z,21.80
2022-10-23T12:10:03.245Z,24.50
2022-10-23T12:15:14.789Z,22.90
2022-10-23T12:20:42.527Z,23.50
2022-10-23T12:26:06.462Z,21.10
2022-10-23T12:31:28.164Z,22.50
2022-10-23T12:37:08.356Z,19.40
2022-10-23T12:42:21.783Z,22.50
2022-10-23T12:47:29.237Z,19.80
2022-10-23T12:52:35.787Z,19.60
2022-10-23T13:02:45.187Z,18.60
2022-10-23T13:07:48.912Z,20.40
2022-10-23T13:13:02.844Z,22.60
2022-10-23T13:18:07.628Z,19.60
2022-10-23T13:23:22.760Z,16.10
2022-10-23T13:28:28.557Z,18.10
2022-10-23T13:33:43.037Z,17.30
2022-10-23T13:39:03.539Z,13.10
2022-10-23T13:44:07.146Z,17.40
2022-10-23T13:49:10.452Z,18.60
2022-10-23T13:59:35.348Z,17.20
2022-10-23T14:04:38.112Z,17.20
2022-10-23T14:09:41.320Z,16.10
2022-10-23T14:14:44.146Z,20.20
2022-10-23T14:19:47.327Z,16.70
2022-10-23T14:24:50.352Z,18.70
2022-10-23T14:29:53.102Z,16.30
2022-10-23T14:34:56.202Z,21.90
2022-10-23T14:39:59.511Z,19.80
2022-10-23T14:45:04.580Z,18.40
2022-10-23T14:50:08.271Z,18.20
2022-10-23T14:55:11.010Z,19.80
2022-10-23T15:00:14.668Z,25.10
2022-10-23T15:05:18.122Z,20.70
2022-10-23T15:10:23.015Z,22.70
2022-10-23T15:15:25.755Z,19.90
2022-10-23T15:20:28.555Z,19.40
2022-10-23T15:25:31.699Z,20.20
2022-10-23T15:30:34.627Z,20.90
2022-10-23T15:35:37.428Z,22.40
2022-10-23T15:40:43.249Z,19.90
2022-10-23T15:45:46.134Z,20.50
2022-10-23T15:50:49.210Z,19.60
2022-10-23T15:55:51.887Z,19.90
2022-10-23T16:00:54.662Z,22.40
2022-10-23T16:05:57.342Z,22.30
2022-10-23T16:11:00.448Z,20.20
2022-10-23T16:16:03.952Z,19.50
2022-10-23T16:21:07.797Z,19.10
2022-10-23T16:26:10.569Z,19.90
2022-10-23T16:31:20.121Z,21.00
2022-10-23T16:36:23.341Z,22.40
2022-10-23T16:41:26.131Z,22.30
2022-10-23T16:46:29.120Z,18.70
2022-10-23T16:51:32.232Z,21.70
2022-10-23T16:56:35.868Z,20.20
2022-10-23T17:01:38.910Z,22.30
2022-10-23T17:06:41.907Z,24.70
2022-10-23T17:11:45.721Z,21.50
2022-10-23T17:16:51.811Z,20.30
2022-10-23T17:21:56.097Z,21.10
2022-10-23T17:26:58.770Z,26.00
2022-10-23T17:32:03.203Z,21.80
2022-10-23T17:37:05.937Z,21.90
2022-10-23T17:42:09.097Z,21.80
2022-10-23T17:47:11.912Z,23.50
2022-10-23T17:52:15.168Z,24.50
2022-10-23T17:57:18.292Z,28.20
2022-10-23T18:02:21.068Z,27.90
2022-10-23T18:07:27.283Z,24.70
2022-10-23T18:12:30.021Z,25.20
2022-10-23T18:17:32.901Z,26.50
2022-10-23T18:22:36.097Z,23.20
2022-10-23T18:27:41.531Z,26.30
2022-10-23T18:32:44.532Z,28.60
2022-10-23T18:37:48.150Z,24.60
2022-10-23T18:42:52.242Z,24.60
2022-10-23T18:47:55.021Z,25.80
2022-10-23T18:52:57.714Z,26.20
2022-10-23T18:58:00.450Z,25.50
2022-10-23T19:03:03.214Z,25.10
2022-10-23T19:08:06.126Z,23.20
2022-10-23T19:13:08.877Z,25.30
2022-10-23T19:18:11.872Z,22.90
2022-10-23T19:23:15.956Z,25.40
2022-10-23T19:28:18.967Z,25.60
2022-10-23T19:33:21.635Z,25.50
2022-10-23T19:38:24.272Z,29.60
2022-10-23T19:43:27.460Z,29.70
2022-10-23T19:48:30.970Z,28.70
2022-10-23T19:53:34.286Z,24.80
2022-10-23T19:58:37.698Z,24.00
2022-10-23T20:03:42.243Z,26.00
2022-10-23T20:08:45.797Z,27.50
2022-10-23T20:13:50.489Z,27.50
2022-10-23T20:18:54.052Z,27.40
2022-10-23T20:24:00.207Z,26.70
2022-10-23T20:29:03.017Z,28.50
2022-10-23T20:34:09.602Z,28.00
2022-10-23T20:39:21.577Z,28.70
2022-10-23T20:44:24.779Z,28.00
2022-10-23T20:49:28.477Z,31.00
2022-10-23T20:54:32.495Z,27.30
2022-10-23T20:59:36.837Z,30.10
2022-10-23T21:04:39.626Z,28.80
2022-10-23T21:09:42.319Z,35.20
2022-10-23T21:14:44.968Z,37.90
2022-10-23T21:19:47.959Z,44.70
2022-10-23T21:24:51.241Z,38.00
2022-10-23T21:29:54.530Z,34.00
2022-10-23T21:34:57.194Z,36.50
2022-10-23T21:40:00.442Z,32.30
2022-10-23T21:45:03.676Z,31.90
2022-10-23T21:50:07.393Z,31.90
2022-10-23T21:55:10.531Z,34.40
2022-10-23T22:00:16.621Z,33.10
2022-10-23T22:05:19.300Z,35.70
2022-10-23T22:10:22.023Z,28.00
2022-10-23T22:15:24.797Z,22.40
2022-10-23T22:20:27.502Z,25.20
2022-10-23T22:25:31.696Z,21.50
2022-10-23T22:30:37.828Z,30.50
2022-10-23T22:35:40.568Z,87.60
2022-10-23T22:40:46.650Z,63.40
2022-10-23T22:45:49.553Z,21.80
2022-10-23T22:50:52.226Z,18.20
2022-10-23T22:55:55.848Z,24.70
2022-10-23T23:01:10.135Z,24.70
2022-10-23T23:06:13.852Z,26.80
2022-10-23T23:11:19.140Z,29.50
2022-10-23T23:16:28.262Z,26.80
2022-10-23T23:21:31.740Z,27.70
2022-10-23T23:26:34.415Z,25.10
2022-10-23T23:31:37.112Z,23.00
2022-10-23T23:36:39.766Z,21.00
2022-10-23T23:41:43.063Z,24.00
2022-10-23T23:46:45.758Z,23.20
2022-10-23T23:51:48.477Z,21.50
2022-10-23T23:56:51.131Z,21.50
